Time;durP1;ratioP1;P1;durP2;ratioP2;P2;SDS_P1;SDS_P2;PMS_P1;PMS_P2;Temp;Humidity;BMP_temperature;BMP_pressure;BME280_temperature;BME280_humidity;BME280_pressure;Samples;Min_cycle;Max_cycle;Signal;HPM_P1;HPM_P2
2022/07/08 00:00:30;;;;;;;2.13;1.40;;;15.20;99.90;;;;;;5051746;28;20045;-87
2022/07/08 00:03:20;;;;;;;2.22;1.40;;;15.30;99.90;;;;;;5057799;28;20048;-86
2022/07/08 00:06:07;;;;;;;4.47;1.70;;;15.20;1.00;;;;;;5059459;28;20079;-87
2022/07/08 00:08:57;;;;;;;2.30;1.50;;;15.30;99.90;;;;;;5061444;28;20049;-87
2022/07/08 00:11:44;;;;;;;7.85;1.70;;;15.20;99.90;;;;;;5063739;28;20159;-87
2022/07/08 00:14:34;;;;;;;3.83;1.83;;;15.20;1.00;;;;;;5039610;28;20037;-89
2022/07/08 00:17:21;;;;;;;8.55;2.40;;;15.20;1.00;;;;;;5062623;28;20045;-86
2022/07/08 00:20:09;;;;;;;8.40;2.47;;;15.10;99.90;;;;;;5056461;28;20132;-88
2022/07/08 00:22:57;;;;;;;9.20;2.85;;;15.00;1.00;;;;;;5058949;28;20059;-86
2022/07/08 00:25:44;;;;;;;11.50;2.83;;;14.80;99.90;;;;;;5052543;28;20488;-85
2022/07/08 00:28:31;;;;;;;5.55;1.90;;;14.60;99.90;;;;;;5059967;28;20122;-86
2022/07/08 00:31:18;;;;;;;9.93;2.08;;;14.50;1.00;;;;;;5056631;28;20045;-87
2022/07/08 00:34:06;;;;;;;13.60;2.70;;;14.40;99.90;;;;;;5054884;28;20068;-85
2022/07/08 00:36:56;;;;;;;8.48;2.42;;;14.40;99.90;;;;;;5057298;28;20110;-86
2022/07/08 00:39:43;;;;;;;14.23;2.67;;;14.40;99.90;;;;;;5059750;28;20049;-87
2022/07/08 00:42:30;;;;;;;5.00;1.83;;;14.30;99.90;;;;;;5055473;28;20073;-86
2022/07/08 00:45:18;;;;;;;6.82;2.35;;;14.20;99.90;;;;;;5056455;28;20033;-84
2022/07/08 00:48:06;;;;;;;12.75;2.85;;;14.00;99.90;;;;;;5040998;28;20044;-86
2022/07/08 00:50:54;;;;;;;11.50;3.40;;;13.90;1.00;;;;;;5046214;28;20079;-86
2022/07/08 00:53:47;;;;;;;15.02;2.75;;;13.80;13.20;;;;;;5061443;28;20183;-88
2022/07/08 00:56:34;;;;;;;;;;;13.60;68.50;;;;;;5051953;28;20044;-86
2022/07/08 00:59:22;;;;;;;14.40;3.70;;;13.40;9.00;;;;;;5056200;28;19958;-86
2022/07/08 01:02:09;;;;;;;11.15;2.80;;;13.30;57.10;;;;;;5054239;28;20044;-86
2022/07/08 01:04:59;;;;;;;6.80;2.92;;;13.20;94.00;;;;;;5048494;28;20063;-86
2022/07/08 01:07:48;;;;;;;13.07;3.13;;;13.20;43.60;;;;;;5057877;28;20051;-86
2022/07/08 01:10:36;;;;;;;16.02;3.63;;;13.10;11.40;;;;;;5060520;28;20122;-83
2022/07/08 01:13:24;;;;;;;13.25;3.67;;;13.00;62.00;;;;;;5069255;28;20051;-87
2022/07/08 01:16:11;;;;;;;12.63;3.45;;;12.90;8.40;;;;;;5050019;28;20062;-83
2022/07/08 01:18:58;;;;;;;9.60;3.67;;;12.80;79.90;;;;;;5056611;28;20045;-86
2022/07/08 01:21:50;;;;;;;13.48;3.60;;;12.70;52.60;;;;;;5060215;28;20052;-84
2022/07/08 01:24:39;;;;;;;10.70;3.42;;;12.70;99.90;;;;;;5055535;28;20049;-88
2022/07/08 01:27:27;;;;;;;9.25;3.63;;;12.60;75.80;;;;;;5055222;28;20048;-85
2022/07/08 01:30:14;;;;;;;13.25;3.80;;;12.50;99.90;;;;;;5054545;28;20053;-85
2022/07/08 01:33:01;;;;;;;10.45;3.50;;;12.40;99.90;;;;;;5054112;28;20057;-86
2022/07/08 01:35:48;;;;;;;6.88;3.28;;;12.30;99.90;;;;;;5053895;28;20371;-86
2022/07/08 01:38:36;;;;;;;12.68;3.70;;;12.10;1.00;;;;;;5055579;28;20107;-86
2022/07/08 01:41:23;;;;;;;11.85;3.70;;;12.00;1.00;;;;;;5039843;28;20446;-88
2022/07/08 01:44:11;;;;;;;16.75;4.68;;;12.00;99.90;;;;;;5053937;28;20118;-87
2022/07/08 01:47:00;;;;;;;8.25;3.33;;;12.00;99.90;;;;;;5053225;28;20075;-88
2022/07/08 01:49:48;;;;;;;14.23;4.00;;;12.00;99.90;;;;;;5052843;28;20067;-85
2022/07/08 01:52:35;;;;;;;14.82;4.20;;;12.00;99.90;;;;;;5040668;28;20134;-86
2022/07/08 01:55:23;;;;;;;12.63;3.28;;;12.00;1.00;;;;;;5050076;28;20052;-85
2022/07/08 01:58:10;;;;;;;13.27;4.75;;;12.00;1.00;;;;;;5055429;28;20044;-85
2022/07/08 02:00:57;;;;;;;16.10;4.10;;;11.90;99.90;;;;;;5031880;28;20053;-85
2022/07/08 02:03:46;;;;;;;12.02;3.92;;;11.90;99.90;;;;;;5054653;28;20045;-86
2022/07/08 02:06:34;;;;;;;11.75;4.35;;;11.90;1.00;;;;;;5051988;28;20041;-86
2022/07/08 02:09:23;;;;;;;17.85;4.47;;;11.80;24.40;;;;;;5055260;28;20049;-86
2022/07/08 02:12:20;;;;;;;7.25;3.60;;;11.80;47.00;;;;;;5053718;28;20063;-86
2022/07/08 02:15:11;;;;;;;14.77;3.85;;;11.70;7.30;;;;;;5048507;28;20064;-84
2022/07/08 02:17:58;;;;;;;11.93;4.03;;;11.70;1.00;;;;;;5044082;28;20071;-87
2022/07/08 02:20:45;;;;;;;26.27;4.40;;;11.70;99.90;;;;;;5050189;28;20049;-85
2022/07/08 02:23:32;;;;;;;18.08;4.30;;;11.70;81.80;;;;;;5053057;28;20109;-85
2022/07/08 02:26:19;;;;;;;11.70;4.18;;;11.60;99.90;;;;;;5057137;28;20123;-85
2022/07/08 02:29:12;;;;;;;14.27;3.78;;;11.60;99.90;;;;;;5061684;28;20144;-85
2022/07/08 02:32:02;;;;;;;14.90;3.78;;;11.60;1.00;;;;;;5034844;28;20040;-87
2022/07/08 02:34:49;;;;;;;13.98;4.22;;;11.50;99.90;;;;;;5045145;28;20040;-85
2022/07/08 02:37:38;;;;;;;15.57;4.05;;;11.40;1.00;;;;;;5049590;28;20053;-85
2022/07/08 02:40:25;;;;;;;11.20;4.10;;;11.40;1.00;;;;;;5048223;28;20107;-85
2022/07/08 02:43:12;;;;;;;16.13;3.70;;;11.40;52.90;;;;;;5053432;28;20045;-86
2022/07/08 02:46:00;;;;;;;14.35;4.20;;;11.30;63.00;;;;;;5039299;28;20080;-85
2022/07/08 02:48:47;;;;;;;14.98;3.88;;;11.30;99.90;;;;;;5056389;28;20429;-86
2022/07/08 02:51:34;;;;;;;16.05;4.28;;;11.30;99.90;;;;;;5054003;28;20041;-85
2022/07/08 02:54:22;;;;;;;10.82;3.95;;;11.10;1.00;;;;;;5049159;28;20052;-86
2022/07/08 02:57:09;;;;;;;14.23;4.13;;;11.10;99.90;;;;;;5051886;28;20057;-85
2022/07/08 02:59:56;;;;;;;13.73;4.63;;;11.00;99.90;;;;;;5052148;28;20139;-86
2022/07/08 03:02:46;;;;;;;14.82;4.10;;;10.90;1.00;;;;;;5046378;28;20079;-86
2022/07/08 03:05:34;;;;;;;14.38;4.70;;;10.90;1.00;;;;;;5050472;28;20114;-85
2022/07/08 03:08:21;;;;;;;14.95;4.22;;;10.80;1.00;;;;;;5060530;28;20099;-86
2022/07/08 03:11:08;;;;;;;14.07;4.03;;;10.70;51.60;;;;;;5055460;28;20167;-84
2022/07/08 03:13:58;;;;;;;12.85;4.03;;;10.60;99.90;;;;;;5042536;28;20052;-87
2022/07/08 03:16:51;;;;;;;17.35;4.63;;;10.60;99.90;;;;;;5040511;28;20055;-87
2022/07/08 03:19:39;;;;;;;14.63;4.35;;;10.70;99.90;;;;;;5042526;28;20370;-85
2022/07/08 03:22:28;;;;;;;11.32;4.13;;;10.70;99.90;;;;;;5054503;28;20112;-85
2022/07/08 03:25:16;;;;;;;30.25;5.13;;;10.70;99.90;;;;;;5046837;28;20462;-86
2022/07/08 03:28:05;;;;;;;16.58;4.47;;;10.70;99.90;;;;;;5056459;28;20110;-86
2022/07/08 03:30:53;;;;;;;9.82;4.00;;;10.70;99.90;;;;;;5051390;28;20060;-84
2022/07/08 03:33:40;;;;;;;9.20;3.80;;;10.60;99.90;;;;;;5045553;28;20427;-84
2022/07/08 03:36:29;;;;;;;16.30;4.45;;;10.60;99.90;;;;;;5059755;28;20041;-84
2022/07/08 03:39:16;;;;;;;13.57;4.15;;;10.60;99.90;;;;;;5050832;28;20064;-84
2022/07/08 03:42:04;;;;;;;12.18;3.80;;;10.70;1.00;;;;;;5054623;28;20194;-84
2022/07/08 03:44:54;;;;;;;11.80;4.38;;;10.80;99.90;;;;;;5039795;28;20107;-85
2022/07/08 03:47:41;;;;;;;13.88;4.40;;;10.80;1.00;;;;;;5051729;28;20048;-85
2022/07/08 03:50:29;;;;;;;10.60;3.90;;;10.90;99.90;;;;;;5062294;28;20060;-84
2022/07/08 03:53:16;;;;;;;21.30;6.05;;;11.00;11.60;;;;;;5052126;28;20124;-84
2022/07/08 03:56:06;;;;;;;16.33;4.05;;;11.00;1.00;;;;;;5054747;28;20057;-85
2022/07/08 03:58:53;;;;;;;12.38;4.60;;;11.10;1.00;;;;;;5053148;28;20409;-85
2022/07/08 04:02:06;;;;;;;15.48;4.57;;;11.10;1.00;;;;;;5053145;28;20063;-86
2022/07/08 04:04:53;;;;;;;;;;;11.00;1.00;;;;;;5051369;28;20041;-85
2022/07/08 04:07:40;;;;;;;9.52;3.90;;;10.90;93.00;;;;;;5034673;28;19928;-84
2022/07/08 04:10:37;;;;;;;14.77;4.07;;;10.80;47.90;;;;;;5040719;28;20117;-84
2022/07/08 04:13:27;;;;;;;11.23;3.90;;;10.90;99.90;;;;;;5067364;28;20079;-85
2022/07/08 04:41:06;;;;;;;10.63;3.40;;;10.90;99.90;;;;;;6002954;22;20323;-83
2022/07/08 04:56:59;;;;;;;12.20;3.80;;;11.20;1.00;;;;;;4936499;29;20090;-85
2022/07/08 04:59:50;;;;;;;11.25;3.83;;;11.30;99.90;;;;;;4997927;28;20058;-86
2022/07/08 05:02:37;;;;;;;13.70;4.05;;;11.30;43.00;;;;;;5054600;28;20048;-86
2022/07/08 05:05:26;;;;;;;11.15;3.67;;;11.40;99.90;;;;;;5081615;28;20055;-86
2022/07/08 05:08:13;;;;;;;12.65;3.78;;;11.40;94.30;;;;;;5075898;28;20136;-88
2022/07/08 05:11:00;;;;;;;9.65;3.97;;;11.50;10.60;;;;;;5073851;28;20052;-85
2022/07/08 05:13:47;;;;;;;13.25;3.40;;;11.60;1.00;;;;;;5072084;28;20059;-86
2022/07/08 05:16:35;;;;;;;11.00;3.50;;;11.70;1.00;;;;;;5085817;28;20434;-86
2022/07/08 05:19:22;;;;;;;16.60;3.13;;;11.80;99.90;;;;;;5073307;28;20130;-87
2022/07/08 05:22:11;;;;;;;12.25;3.28;;;12.00;99.90;;;;;;5081586;28;20106;-85
2022/07/08 05:24:58;;;;;;;10.10;3.45;;;12.10;1.00;;;;;;5057170;28;20041;-86
2022/07/08 05:27:48;;;;;;;19.08;3.65;;;12.20;99.90;;;;;;5075661;28;20059;-85
2022/07/08 05:30:38;;;;;;;14.70;4.07;;;12.20;1.00;;;;;;5062688;28;20052;-84
2022/07/08 05:33:25;;;;;;;10.45;3.40;;;12.30;1.00;;;;;;5066716;28;20056;-84
2022/07/08 05:36:12;;;;;;;14.38;3.95;;;12.40;1.00;;;;;;5080600;28;20048;-84
2022/07/08 05:39:01;;;;;;;8.23;3.58;;;12.40;1.00;;;;;;5071210;28;20119;-84
2022/07/08 05:41:48;;;;;;;11.10;3.45;;;12.50;99.90;;;;;;5067681;28;20053;-82
2022/07/08 05:44:38;;;;;;;10.40;3.20;;;12.50;99.90;;;;;;5071013;28;20043;-82
2022/07/08 05:47:25;;;;;;;13.82;3.88;;;12.60;99.90;;;;;;5067602;28;20045;-89
2022/07/08 05:50:15;;;;;;;11.45;2.83;;;12.60;1.00;;;;;;5072814;28;20048;-91
2022/07/08 05:53:02;;;;;;;10.50;2.55;;;12.70;99.90;;;;;;5058066;28;20143;-88
2022/07/08 05:55:54;;;;;;;10.82;2.72;;;12.80;1.00;;;;;;5072284;28;20090;-87
2022/07/08 05:58:41;;;;;;;13.77;2.63;;;12.90;99.90;;;;;;5070233;28;20059;-88
2022/07/08 06:01:28;;;;;;;15.00;2.60;;;13.00;99.90;;;;;;5070226;28;20339;-86
2022/07/08 06:04:15;;;;;;;6.82;2.65;;;13.00;99.90;;;;;;5070428;28;20050;-86
2022/07/08 06:07:03;;;;;;;7.90;2.38;;;13.10;55.90;;;;;;5067032;28;20047;-86
2022/07/08 06:09:53;;;;;;;9.75;2.92;;;13.20;1.00;;;;;;5076338;28;20116;-90
2022/07/08 06:12:42;;;;;;;5.10;2.20;;;13.30;1.00;;;;;;5072510;28;20056;-88
2022/07/08 06:15:30;;;;;;;9.20;2.70;;;13.30;99.90;;;;;;5070831;28;20049;-88
2022/07/08 06:18:19;;;;;;;11.35;2.83;;;13.40;99.90;;;;;;5060981;28;20072;-86
2022/07/08 06:21:07;;;;;;;10.95;2.75;;;13.50;99.90;;;;;;5073544;28;20201;-87
2022/07/08 06:23:54;;;;;;;12.60;2.60;;;13.70;99.90;;;;;;5057266;28;20140;-89
2022/07/08 06:26:44;;;;;;;14.00;2.70;;;13.70;1.00;;;;;;5076231;28;20044;-88
2022/07/08 06:29:32;;;;;;;10.63;2.30;;;13.80;1.00;;;;;;5076324;28;20098;-84
2022/07/08 06:32:19;;;;;;;8.15;2.28;;;13.80;99.90;;;;;;5075075;28;20048;-89
2022/07/08 06:35:07;;;;;;;6.32;1.55;;;13.80;99.90;;;;;;5070583;28;20049;-87
2022/07/08 06:37:54;;;;;;;12.07;2.80;;;14.00;99.90;;;;;;5071236;28;20044;-89
2022/07/08 06:40:42;;;;;;;10.30;2.13;;;14.30;99.90;;;;;;5056599;28;20068;-87
2022/07/08 06:43:31;;;;;;;7.97;1.83;;;14.50;77.30;;;;;;5072755;28;20098;-86
2022/07/08 06:46:19;;;;;;;7.05;1.85;;;14.60;1.00;;;;;;5056187;28;20036;-88
2022/07/08 06:49:08;;;;;;;6.13;1.85;;;14.80;1.00;;;;;;5054437;28;20120;-88
2022/07/08 06:51:57;;;;;;;6.53;2.28;;;15.20;1.00;;;;;;5053476;28;20044;-85
2022/07/08 06:54:44;;;;;;;11.05;1.95;;;15.70;99.90;;;;;;5075138;28;20045;-87
2022/07/08 06:57:31;;;;;;;7.28;2.17;;;16.00;99.90;;;;;;5068012;28;20063;-90
2022/07/08 07:00:22;;;;;;;6.60;1.48;;;16.40;99.90;;;;;;5079152;28;20083;-88
2022/07/08 07:03:09;;;;;;;10.05;1.98;;;16.40;99.90;;;;;;5071276;28;20373;-88
2022/07/08 07:05:56;;;;;;;4.60;1.70;;;16.50;1.00;;;;;;5069500;28;20049;-90
2022/07/08 07:08:46;;;;;;;8.98;1.80;;;16.50;1.00;;;;;;5057896;28;20041;-88
2022/07/08 07:11:35;;;;;;;9.13;2.53;;;16.40;1.00;;;;;;5071373;28;20036;-87
2022/07/08 07:14:22;;;;;;;6.20;1.90;;;16.40;1.00;;;;;;5076582;28;20059;-88
2022/07/08 07:17:18;;;;;;;9.70;1.77;;;17.30;1.00;;;;;;5061515;28;20128;-88
2022/07/08 07:20:06;;;;;;;7.95;1.77;;;18.20;1.00;;;;;;5065421;28;20330;-82
2022/07/08 07:22:53;;;;;;;5.18;1.42;;;19.10;99.90;;;;;;5070319;28;20048;-85
2022/07/08 07:25:40;;;;;;;7.72;1.73;;;19.10;99.90;;;;;;5068579;28;20552;-85
2022/07/08 07:28:28;;;;;;;8.73;1.90;;;19.20;99.90;;;;;;5064854;28;20056;-85
2022/07/08 07:31:16;;;;;;;6.68;1.67;;;19.50;99.90;;;;;;5071154;28;20037;-89
2022/07/08 07:34:03;;;;;;;6.90;1.60;;;19.80;99.90;;;;;;5053950;28;20056;-88
2022/07/08 07:36:51;;;;;;;10.43;2.28;;;19.70;99.90;;;;;;5063982;28;20106;-87
2022/07/08 07:39:46;;;;;;;7.70;1.58;;;19.80;99.90;;;;;;5075122;28;20042;-86
2022/07/08 07:42:35;;;;;;;7.68;2.50;;;19.60;99.90;;;;;;5073789;28;20425;-89
2022/07/08 07:45:25;;;;;;;6.45;1.77;;;19.50;99.90;;;;;;5071448;28;20040;-91
2022/07/08 07:48:12;;;;;;;8.65;2.00;;;19.50;99.90;;;;;;5080864;28;20111;-89
2022/07/08 07:51:00;;;;;;;9.95;1.75;;;18.80;99.90;;;;;;5083344;28;20044;-89
2022/07/08 07:53:47;;;;;;;10.88;1.90;;;18.80;99.90;;;;;;5078661;28;20145;-88
2022/07/08 07:56:34;;;;;;;9.68;2.10;;;18.80;99.90;;;;;;5079218;28;20077;-89
2022/07/08 07:59:21;;;;;;;6.45;1.40;;;18.90;99.90;;;;;;5073803;28;20072;-88
2022/07/08 08:02:09;;;;;;;5.78;1.98;;;18.70;99.90;;;;;;5081151;28;20048;-89
2022/07/08 08:04:56;;;;;;;7.25;1.60;;;18.40;99.90;;;;;;5072663;28;20393;-83
2022/07/08 08:07:48;;;;;;;7.07;1.90;;;18.60;99.90;;;;;;5073792;28;20106;-87
2022/07/08 08:10:36;;;;;;;9.25;1.92;;;19.50;99.90;;;;;;5080232;28;20059;-89
2022/07/08 08:13:24;;;;;;;9.75;1.77;;;19.80;99.90;;;;;;5074824;28;20564;-89
2022/07/08 08:16:11;;;;;;;7.32;1.80;;;19.70;99.90;;;;;;5059642;28;20153;-85
2022/07/08 08:18:59;;;;;;;7.53;1.80;;;19.10;99.90;;;;;;5072186;28;20047;-86
2022/07/08 08:21:46;;;;;;;8.43;1.70;;;18.70;99.90;;;;;;5057565;28;20044;-87
2022/07/08 08:24:34;;;;;;;5.88;1.73;;;18.40;99.90;;;;;;5085240;28;20104;-87
2022/07/08 08:27:21;;;;;;;5.95;1.35;;;18.80;99.90;;;;;;5071722;28;20037;-87
2022/07/08 08:30:09;;;;;;;4.18;1.50;;;19.70;99.90;;;;;;5082620;28;20049;-85
2022/07/08 08:32:59;;;;;;;9.13;1.80;;;20.20;99.90;;;;;;5093615;28;20049;-87
2022/07/08 08:35:48;;;;;;;6.55;1.77;;;19.70;99.90;;;;;;5092928;28;20032;-84
2022/07/08 08:38:36;;;;;;;4.57;1.45;;;19.40;99.90;;;;;;5081331;28;20033;-89
2022/07/08 08:41:23;;;;;;;7.80;1.60;;;19.40;99.90;;;;;;5079085;28;20025;-89
2022/07/08 08:44:10;;;;;;;5.45;1.75;;;19.30;99.90;;;;;;5090620;28;20041;-90
2022/07/08 08:47:03;;;;;;;9.50;2.00;;;19.60;99.90;;;;;;5084119;28;20041;-89
2022/07/08 08:49:54;;;;;;;8.70;2.37;;;20.80;99.90;;;;;;5052041;28;20121;-89
2022/07/08 08:52:45;;;;;;;4.78;1.23;;;20.80;99.90;;;;;;5078766;28;20287;-88
2022/07/08 08:55:33;;;;;;;9.25;1.63;;;20.90;99.90;;;;;;5075245;28;20385;-90
2022/07/08 08:58:21;;;;;;;8.73;1.98;;;21.70;99.90;;;;;;5080165;28;20045;-85
2022/07/08 09:01:09;;;;;;;3.95;1.10;;;22.70;99.90;;;;;;5060973;28;20067;-88
2022/07/08 09:03:59;;;;;;;6.32;1.55;;;23.30;82.10;;;;;;5074159;28;20082;-90
2022/07/08 09:06:46;;;;;;;6.30;1.58;;;24.20;83.70;;;;;;5077930;28;20058;-89
2022/07/08 09:09:33;;;;;;;8.40;1.80;;;24.60;47.60;;;;;;5079221;28;20049;-89
2022/07/08 09:12:22;;;;;;;8.40;1.70;;;24.40;37.60;;;;;;5055150;28;20044;-89
2022/07/08 09:15:10;;;;;;;5.18;1.20;;;24.30;29.40;;;;;;5053657;28;20040;-88
2022/07/08 09:18:00;;;;;;;9.95;1.65;;;24.00;28.30;;;;;;5069330;28;20330;-87
2022/07/08 09:20:53;;;;;;;6.72;1.48;;;24.30;14.50;;;;;;5063936;28;20044;-87
2022/07/08 09:23:41;;;;;;;5.40;1.40;;;24.30;12.60;;;;;;5077358;28;20032;-87
2022/07/08 09:26:28;;;;;;;7.35;1.60;;;24.70;9.70;;;;;;5070750;28;20040;-86
2022/07/08 09:29:15;;;;;;;6.70;1.40;;;25.20;9.50;;;;;;5079417;28;20111;-89
2022/07/08 09:32:14;;;;;;;5.35;1.38;;;25.70;14.80;;;;;;5066609;28;20128;-87
2022/07/08 09:35:01;;;;;;;6.65;1.30;;;25.80;1.00;;;;;;5077019;28;20098;-88
2022/07/08 09:37:51;;;;;;;3.72;1.30;;;25.90;1.00;;;;;;5068718;28;20101;-86
2022/07/08 09:40:39;;;;;;;7.45;1.33;;;25.40;1.00;;;;;;5061026;28;20358;-87
2022/07/08 09:43:34;;;;;;;4.97;1.55;;;25.20;1.00;;;;;;5072489;28;20048;-86
2022/07/08 09:46:21;;;;;;;;;;;25.80;1.00;;;;;;5077052;28;20036;-87
2022/07/08 09:49:26;;;;;;;7.57;1.63;;;25.30;1.00;;;;;;5068789;28;19988;-87
2022/07/08 09:52:22;;;;;;;9.25;1.33;;;25.10;1.00;;;;;;5089665;28;20044;-89
2022/07/08 09:55:10;;;;;;;2.60;0.93;;;25.30;1.00;;;;;;5073236;28;20063;-87
2022/07/08 09:57:59;;;;;;;7.38;1.98;;;25.60;1.00;;;;;;5062403;28;20119;-91
2022/07/08 10:00:47;;;;;;;4.57;1.30;;;25.70;1.00;;;;;;5062266;28;20044;-89
2022/07/08 10:03:38;;;;;;;3.58;1.33;;;26.00;1.00;;;;;;5071511;28;20121;-87
2022/07/08 10:06:25;;;;;;;7.00;1.38;;;25.90;1.00;;;;;;5068968;28;20119;-88
2022/07/08 10:09:14;;;;;;;3.33;0.90;;;25.50;1.00;;;;;;5060591;28;20048;-89
2022/07/08 10:12:04;;;;;;;6.35;1.15;;;25.70;1.00;;;;;;5071616;28;20053;-88
2022/07/08 10:14:54;;;;;;;5.15;1.13;;;25.70;1.00;;;;;;5057353;28;20503;-90
2022/07/08 10:17:44;;;;;;;5.72;1.60;;;25.90;1.00;;;;;;5072034;28;20123;-88
2022/07/08 10:20:36;;;;;;;5.90;1.33;;;26.60;1.00;;;;;;5064431;28;20127;-88
2022/07/08 10:23:28;;;;;;;6.70;1.42;;;26.30;1.00;;;;;;5073523;28;20091;-88
2022/07/08 10:26:21;;;;;;;4.55;1.10;;;26.50;1.00;;;;;;5070112;28;20090;-88
2022/07/08 10:29:10;;;;;;;;;;;26.60;1.00;;;;;;5065671;28;20106;-89
2022/07/08 10:31:59;;;;;;;6.95;1.27;;;26.70;1.00;;;;;;5061860;28;19951;-87
2022/07/08 10:35:08;;;;;;;4.25;1.30;;;26.90;1.00;;;;;;5080778;28;20036;-90
2022/07/08 10:37:58;;;;;;;7.15;1.52;;;27.10;1.00;;;;;;5072565;28;20040;-88
2022/07/08 10:40:49;;;;;;;4.82;1.67;;;27.30;1.00;;;;;;5078620;28;20137;-89
2022/07/08 10:43:50;;;;;;;4.68;1.38;;;27.60;1.00;;;;;;5042739;28;20045;-88
2022/07/08 10:46:50;;;;;;;7.68;1.45;;;27.50;1.00;;;;;;5059257;28;20055;-90
2022/07/08 10:49:47;;;;;;;5.55;1.38;;;27.50;1.00;;;;;;5062970;28;20044;-89
2022/07/08 10:52:39;;;;;;;4.05;1.02;;;28.10;1.00;;;;;;5071935;28;20065;-85
2022/07/08 10:55:26;;;;;;;;;;;28.10;1.00;;;;;;5059346;28;20048;-90
2022/07/08 10:58:14;;;;;;;7.07;1.95;;;28.10;1.00;;;;;;5072107;28;19943;-90
2022/07/08 11:01:24;;;;;;;5.28;1.70;;;28.00;1.00;;;;;;5063587;28;20052;-90
2022/07/08 11:04:34;;;;;;;5.63;1.27;;;28.60;1.00;;;;;;5062168;28;20045;-89
2022/07/08 11:07:29;;;;;;;4.65;1.40;;;28.70;1.00;;;;;;5076488;28;20041;-90
2022/07/08 11:10:17;;;;;;;4.32;1.15;;;28.30;1.00;;;;;;5077426;28;20420;-89
2022/07/08 11:13:05;;;;;;;5.38;1.05;;;28.80;1.00;;;;;;5056773;28;20134;-91
2022/07/08 11:15:58;;;;;;;3.60;1.23;;;29.00;1.00;;;;;;5073803;28;20102;-91
2022/07/08 11:18:47;;;;;;;3.78;1.00;;;28.40;1.00;;;;;;5068182;28;20048;-89
2022/07/08 11:21:35;;;;;;;3.97;1.10;;;27.40;1.00;;;;;;5067902;28;20060;-86
2022/07/08 11:24:22;;;;;;;6.10;1.40;;;27.40;1.00;;;;;;5066186;28;20055;-90
2022/07/08 11:27:10;;;;;;;5.72;1.50;;;28.30;1.00;;;;;;5077569;28;20037;-87
2022/07/08 11:29:57;;;;;;;4.82;1.40;;;28.40;1.00;;;;;;5071957;28;20048;-88
2022/07/08 11:32:50;;;;;;;5.80;0.98;;;28.80;1.00;;;;;;5070926;28;20036;-84
2022/07/08 11:35:42;;;;;;;3.40;0.98;;;29.10;1.00;;;;;;5068630;28;20177;-86
2022/07/08 11:38:37;;;;;;;5.72;1.40;;;29.10;1.00;;;;;;5068740;28;20105;-87
2022/07/08 11:41:28;;;;;;;4.20;1.20;;;29.50;1.00;;;;;;5071632;28;20454;-87
2022/07/08 11:44:20;;;;;;;4.97;1.08;;;29.60;1.00;;;;;;5071458;28;20099;-89
2022/07/08 11:47:10;;;;;;;5.35;1.48;;;29.70;1.00;;;;;;5070945;28;20499;-90
2022/07/08 11:50:00;;;;;;;5.00;0.90;;;29.40;1.00;;;;;;5062267;28;20359;-87
2022/07/08 11:52:49;;;;;;;4.10;1.02;;;28.90;1.00;;;;;;5075812;28;20317;-89
2022/07/08 11:55:44;;;;;;;3.50;1.25;;;26.80;1.00;;;;;;5075412;28;20197;-90
2022/07/08 11:58:32;;;;;;;6.00;1.35;;;27.10;1.00;;;;;;5076487;28;20118;-88
2022/07/08 12:01:25;;;;;;;3.47;0.98;;;28.00;1.00;;;;;;5075193;28;20037;-87
2022/07/08 12:04:12;;;;;;;3.08;0.80;;;28.80;1.00;;;;;;5070977;28;20131;-90
2022/07/08 12:07:01;;;;;;;4.00;0.90;;;27.50;1.00;;;;;;5075910;28;20051;-89
2022/07/08 12:09:58;;;;;;;5.60;1.00;;;27.90;1.00;;;;;;5077893;28;20105;-90
2022/07/08 12:12:56;;;;;;;2.95;0.88;;;28.80;1.00;;;;;;5072129;28;20068;-90
2022/07/08 12:15:46;;;;;;;5.63;1.02;;;29.10;1.00;;;;;;5074695;28;20041;-89
2022/07/08 12:18:44;;;;;;;3.20;0.88;;;29.10;1.00;;;;;;5075086;28;20058;-89
2022/07/08 12:21:34;;;;;;;4.50;1.27;;;29.20;1.00;;;;;;5074221;28;20122;-89
2022/07/08 12:24:31;;;;;;;3.28;1.10;;;29.30;1.00;;;;;;5058098;28;20044;-85
2022/07/08 12:27:19;;;;;;;2.92;0.80;;;30.10;1.00;;;;;;5075985;28;20040;-87
2022/07/08 12:30:07;;;;;;;3.17;0.95;;;30.10;1.00;;;;;;5079093;28;20307;-89
2022/07/08 12:33:23;;;;;;;5.05;1.17;;;30.00;1.00;;;;;;5070749;28;20048;-92
2022/07/08 12:36:29;;;;;;;2.88;0.80;;;30.10;1.00;;;;;;5059427;28;20162;-92
2022/07/08 12:39:27;;;;;;;4.20;1.13;;;30.80;1.00;;;;;;5061108;28;20083;-89
2022/07/08 12:42:26;;;;;;;6.18;1.10;;;30.20;1.00;;;;;;5062877;28;20045;-90
2022/07/08 12:45:15;;;;;;;3.13;0.93;;;30.90;1.00;;;;;;5077450;28;20048;-91
2022/07/08 12:48:06;;;;;;;5.43;0.68;;;31.50;1.00;;;;;;5074895;28;20285;-89
2022/07/08 12:50:53;;;;;;;2.45;0.90;;;31.40;1.00;;;;;;5076081;28;20096;-87
2022/07/08 12:53:41;;;;;;;4.32;1.10;;;31.50;1.00;;;;;;5062954;28;20041;-92
2022/07/08 12:56:28;;;;;;;4.22;0.90;;;31.50;1.00;;;;;;5078687;28;20066;-88
2022/07/08 12:59:15;;;;;;;7.03;1.33;;;31.30;1.00;;;;;;5067607;28;20045;-92
2022/07/08 13:02:03;;;;;;;6.78;1.42;;;31.20;1.00;;;;;;5063892;28;20438;-88
2022/07/08 13:04:50;;;;;;;7.18;1.30;;;31.40;1.00;;;;;;5063214;28;20040;-93
2022/07/08 13:07:38;;;;;;;7.45;1.02;;;30.50;1.00;;;;;;5058475;28;20040;-93
2022/07/08 13:10:25;;;;;;;5.45;0.98;;;30.10;1.00;;;;;;5060872;28;20921;-87
2022/07/08 13:13:16;;;;;;;5.03;0.93;;;30.00;1.00;;;;;;5073937;28;20072;-91
2022/07/08 13:16:03;;;;;;;4.97;0.98;;;30.50;1.00;;;;;;5074290;28;20059;-88
2022/07/08 13:18:51;;;;;;;4.22;1.20;;;30.10;1.00;;;;;;5074171;28;20071;-89
2022/07/08 13:21:39;;;;;;;3.85;0.95;;;30.20;1.00;;;;;;5073485;28;20122;-88
2022/07/08 13:24:28;;;;;;;4.32;1.05;;;30.80;1.00;;;;;;5094218;28;20110;-90
2022/07/08 13:27:19;;;;;;;2.72;0.95;;;31.70;1.00;;;;;;5062891;28;20060;-89
2022/07/08 13:30:07;;;;;;;4.00;1.20;;;32.40;1.00;;;;;;5067423;28;20055;-88
2022/07/08 13:32:55;;;;;;;3.30;0.93;;;32.10;1.00;;;;;;5060662;28;20074;-88
2022/07/08 13:35:44;;;;;;;4.97;1.10;;;32.10;1.00;;;;;;5068227;28;20060;-87
2022/07/08 13:38:31;;;;;;;6.32;1.05;;;31.70;1.00;;;;;;5074895;28;20492;-87
2022/07/08 13:41:20;;;;;;;5.82;0.90;;;31.50;1.00;;;;;;5082692;28;20508;-91
2022/07/08 13:44:10;;;;;;;5.60;0.98;;;31.20;1.00;;;;;;5082985;28;20155;-90
2022/07/08 13:46:59;;;;;;;5.55;1.20;;;31.40;1.00;;;;;;5070725;28;20040;-88
2022/07/08 13:49:47;;;;;;;3.20;0.90;;;31.10;1.00;;;;;;5075023;28;20059;-88
2022/07/08 13:52:37;;;;;;;4.32;0.80;;;31.70;1.00;;;;;;5075826;28;20095;-90
2022/07/08 13:55:25;;;;;;;4.45;1.05;;;32.30;1.00;;;;;;5054069;28;20136;-90
2022/07/08 13:58:14;;;;;;;5.30;0.80;;;32.50;1.00;;;;;;5075284;28;20051;-90
2022/07/08 14:01:02;;;;;;;4.85;1.10;;;33.10;1.00;;;;;;5076828;28;20059;-88
2022/07/08 14:03:50;;;;;;;2.42;0.85;;;33.30;1.00;;;;;;5077026;28;20049;-91
2022/07/08 14:06:37;;;;;;;2.08;0.80;;;32.60;1.00;;;;;;5072589;28;20068;-93
2022/07/08 14:09:51;;;;;;;5.60;1.10;;;30.90;1.00;;;;;;5115787;27;20412;-92
2022/07/08 14:12:38;;;;;;;3.67;1.15;;;29.70;1.00;;;;;;5109984;28;20130;-87
2022/07/08 14:15:28;;;;;;;3.97;1.00;;;30.40;1.00;;;;;;5105813;28;20055;-87
2022/07/08 14:18:15;;;;;;;4.55;1.23;;;30.90;1.00;;;;;;5110836;28;20082;-86
2022/07/08 14:21:08;;;;;;;5.32;0.90;;;31.40;1.00;;;;;;5105838;28;20078;-86
2022/07/08 14:23:56;;;;;;;4.57;1.33;;;31.90;1.00;;;;;;5106718;28;20173;-87
2022/07/08 14:26:45;;;;;;;4.05;2.00;;;31.50;1.00;;;;;;5102259;28;20036;-87
2022/07/08 14:29:33;;;;;;;4.07;1.17;;;30.80;1.00;;;;;;5108424;28;20051;-86
2022/07/08 14:32:20;;;;;;;3.20;1.08;;;30.90;1.00;;;;;;5098077;28;20051;-88
2022/07/08 14:35:10;;;;;;;6.25;1.40;;;30.90;1.00;;;;;;5095758;28;20032;-87
2022/07/08 14:37:59;;;;;;;5.10;1.42;;;30.10;1.00;;;;;;5107544;28;20051;-89
2022/07/08 14:40:46;;;;;;;4.88;1.25;;;29.30;1.00;;;;;;5104141;28;20051;-86
2022/07/08 14:43:34;;;;;;;2.42;0.90;;;28.80;1.00;;;;;;5107436;28;20051;-90
2022/07/08 14:46:21;;;;;;;5.53;1.05;;;28.50;1.00;;;;;;5093779;28;20048;-88
2022/07/08 14:49:08;;;;;;;4.80;1.23;;;29.80;1.00;;;;;;5092855;28;20040;-89
2022/07/08 14:51:56;;;;;;;3.10;0.80;;;30.70;1.00;;;;;;5106768;28;20233;-89
2022/07/08 14:54:43;;;;;;;5.15;1.20;;;30.20;1.00;;;;;;5101747;28;20051;-91
2022/07/08 14:57:30;;;;;;;7.32;1.48;;;29.30;1.00;;;;;;5108468;28;20115;-88
2022/07/08 15:00:18;;;;;;;5.75;1.30;;;29.30;1.00;;;;;;5108901;28;20055;-89
2022/07/08 15:03:06;;;;;;;5.00;0.88;;;29.80;1.00;;;;;;5090469;28;20051;-88
2022/07/08 15:05:53;;;;;;;4.05;1.10;;;30.20;1.00;;;;;;5100763;28;20358;-90
2022/07/08 15:08:41;;;;;;;7.10;1.35;;;30.30;1.00;;;;;;5109354;28;20071;-88
2022/07/08 15:11:28;;;;;;;5.10;1.38;;;30.80;1.00;;;;;;5106447;28;20063;-85
2022/07/08 15:14:16;;;;;;;7.32;1.20;;;29.40;1.00;;;;;;5108335;28;20046;-88
2022/07/08 15:17:06;;;;;;;3.25;0.85;;;28.30;1.00;;;;;;5110386;28;20043;-89
2022/07/08 15:19:54;;;;;;;3.63;1.10;;;28.30;1.00;;;;;;5096665;28;20067;-89
2022/07/08 15:22:41;;;;;;;2.28;1.20;;;28.80;1.00;;;;;;5090166;28;20041;-88